Time;durP1;ratioP1;P1;durP2;ratioP2;P2;SDS_P1;SDS_P2;PMS_P1;PMS_P2;Temp;Humidity;BMP_temperature;BMP_pressure;BME280_temperature;BME280_humidity;BME280_pressure;Samples;Min_cycle;Max_cycle;Signal;HPM_P1;HPM_P2
2023/04/12 00:00:19;;;;;;;6.20;3.33;;;4.10;99.90;;;;;;5091806;28;20289;-78
2023/04/12 00:02:48;;;;;;;7.33;3.73;;;4.20;99.90;;;;;;5091121;28;20214;-78
2023/04/12 00:05:15;;;;;;;8.67;3.07;;;4.10;99.90;;;;;;5092896;28;20217;-78
2023/04/12 00:07:45;;;;;;;8.97;3.20;;;4.20;99.90;;;;;;5091681;28;20641;-80
2023/04/12 00:10:12;;;;;;;7.27;3.60;;;4.10;99.90;;;;;;5090619;28;20293;-80
2023/04/12 00:12:40;;;;;;;7.87;4.03;;;3.70;99.90;;;;;;5103565;28;20197;-79
2023/04/12 00:15:08;;;;;;;5.60;3.80;;;3.30;99.90;;;;;;5102768;28;20222;-78
2023/04/12 00:17:35;;;;;;;5.07;3.87;;;3.20;99.90;;;;;;5089121;28;20247;-79
2023/04/12 00:20:05;;;;;;;6.33;4.07;;;3.10;99.90;;;;;;5102975;28;20202;-80
2023/04/12 00:22:32;;;;;;;5.67;4.07;;;3.10;99.90;;;;;;5103681;28;20205;-78
2023/04/12 00:24:59;;;;;;;8.73;3.70;;;3.00;99.90;;;;;;5102680;28;20222;-78
2023/04/12 00:27:25;;;;;;;3.90;3.10;;;2.80;99.90;;;;;;5103255;28;20390;-79
2023/04/12 00:29:53;;;;;;;5.90;3.50;;;2.80;99.90;;;;;;5103597;28;20205;-79
2023/04/12 00:32:20;;;;;;;6.83;3.77;;;2.70;99.90;;;;;;5104586;28;20208;-79
2023/04/12 00:34:47;;;;;;;7.43;3.30;;;2.70;99.90;;;;;;5104169;28;20229;-79
2023/04/12 00:37:14;;;;;;;4.63;3.70;;;2.50;99.90;;;;;;5103730;28;20505;-80
2023/04/12 00:39:41;;;;;;;5.40;3.23;;;2.40;99.90;;;;;;5104742;28;20725;-79
2023/04/12 00:42:07;;;;;;;5.50;3.30;;;2.40;99.90;;;;;;5094276;28;20198;-80
2023/04/12 00:44:34;;;;;;;6.80;3.50;;;2.50;99.90;;;;;;5092852;28;20214;-79
2023/04/12 00:47:04;;;;;;;5.07;3.30;;;2.50;99.90;;;;;;5084397;28;20233;-79
2023/04/12 00:49:33;;;;;;;6.67;3.77;;;2.50;99.90;;;;;;5101778;28;20224;-79
2023/04/12 00:52:02;;;;;;;5.47;3.30;;;2.60;99.90;;;;;;5097170;28;20198;-79
2023/04/12 00:54:29;;;;;;;5.97;3.43;;;2.50;99.90;;;;;;5082857;28;20222;-78
2023/04/12 00:56:56;;;;;;;7.27;3.70;;;2.60;99.90;;;;;;5092206;28;20200;-80
2023/04/12 00:59:23;;;;;;;8.73;3.33;;;2.80;99.90;;;;;;5102545;28;20197;-79
2023/04/12 01:01:51;;;;;;;6.57;3.43;;;3.00;99.90;;;;;;5102799;28;20211;-80
2023/04/12 01:04:21;;;;;;;4.57;2.77;;;3.10;99.90;;;;;;5088679;28;20765;-80
2023/04/12 01:07:14;;;;;;;4.17;2.83;;;3.20;99.90;;;;;;5086310;28;20237;-79
2023/04/12 01:09:50;;;;;;;4.57;2.63;;;3.30;99.90;;;;;;5082050;28;20211;-78
2023/04/12 01:12:25;;;;;;;3.83;2.77;;;3.40;99.90;;;;;;5090290;28;20201;-80
2023/04/12 01:14:58;;;;;;;7.93;2.50;;;3.80;99.90;;;;;;5085332;28;20217;-78
2023/04/12 01:17:29;;;;;;;6.20;3.17;;;3.80;99.90;;;;;;5098014;28;20212;-80
2023/04/12 01:20:06;;;;;;;4.30;2.67;;;3.90;99.90;;;;;;5083702;28;20198;-78
2023/04/12 01:23:07;;;;;;;5.13;3.00;;;3.50;99.90;;;;;;5081407;28;20242;-79
2023/04/12 01:25:40;;;;;;;3.70;3.10;;;3.20;99.90;;;;;;5086585;28;20218;-78
2023/04/12 01:28:11;;;;;;;4.77;2.83;;;2.80;99.90;;;;;;5091253;28;20201;-79
2023/04/12 01:30:39;;;;;;;4.67;2.80;;;2.80;99.90;;;;;;5101245;28;20205;-80
2023/04/12 01:33:07;;;;;;;5.23;2.80;;;2.40;99.90;;;;;;5097754;28;20220;-79
2023/04/12 01:35:34;;;;;;;6.07;3.17;;;2.30;99.90;;;;;;5101331;28;20231;-80
2023/04/12 01:38:01;;;;;;;7.33;3.43;;;2.40;99.90;;;;;;5092818;28;20194;-79
2023/04/12 01:40:30;;;;;;;6.87;3.00;;;2.40;99.90;;;;;;5092288;28;20200;-79
2023/04/12 01:43:07;;;;;;;4.90;3.03;;;2.50;99.90;;;;;;5096302;28;20199;-79
2023/04/12 01:45:35;;;;;;;7.73;3.27;;;2.40;99.90;;;;;;5102254;28;20228;-78
2023/04/12 01:48:04;;;;;;;4.27;2.87;;;2.30;99.90;;;;;;5084721;28;20198;-80
2023/04/12 01:50:37;;;;;;;4.83;2.80;;;2.20;99.90;;;;;;5088869;28;20201;-79
2023/04/12 01:53:10;;;;;;;5.07;3.10;;;2.20;99.90;;;;;;5082505;28;20206;-79
2023/04/12 01:55:41;;;;;;;5.63;3.00;;;2.20;99.90;;;;;;5079548;28;20265;-78
2023/04/12 01:58:10;;;;;;;3.50;2.87;;;2.20;99.90;;;;;;5089047;28;20630;-78
2023/04/12 02:00:41;;;;;;;4.43;2.97;;;2.30;99.90;;;;;;5082734;28;20650;-80
2023/04/12 02:03:08;;;;;;;6.40;2.77;;;2.50;99.90;;;;;;5102926;28;20205;-78
2023/04/12 02:05:36;;;;;;;6.67;3.10;;;2.70;99.90;;;;;;5099763;28;20633;-79
2023/04/12 02:08:03;;;;;;;6.03;3.00;;;3.00;99.90;;;;;;5092430;28;20316;-78
2023/04/12 02:10:30;;;;;;;4.23;2.17;;;3.20;99.90;;;;;;5102659;28;20217;-78
2023/04/12 02:12:59;;;;;;;4.97;3.10;;;3.70;99.90;;;;;;5090254;28;20583;-79
2023/04/12 02:15:26;;;;;;;5.63;2.70;;;4.00;99.90;;;;;;5095783;28;20226;-80
2023/04/12 02:17:54;;;;;;;5.60;2.63;;;4.10;99.90;;;;;;5086946;28;20197;-79
2023/04/12 02:20:23;;;;;;;4.37;2.43;;;4.40;99.90;;;;;;5084334;28;20218;-79
2023/04/12 02:22:50;;;;;;;5.70;2.63;;;4.20;99.90;;;;;;5084258;28;20289;-80
2023/04/12 02:25:17;;;;;;;6.10;2.80;;;3.90;99.90;;;;;;5084553;28;20226;-80
2023/04/12 02:27:45;;;;;;;4.30;2.53;;;3.60;99.90;;;;;;5084838;28;20218;-80
2023/04/12 02:30:12;;;;;;;4.27;2.33;;;3.50;99.90;;;;;;5094067;28;20619;-79
2023/04/12 02:32:43;;;;;;;6.40;2.70;;;3.30;99.90;;;;;;5087607;28;20203;-78
2023/04/12 02:35:12;;;;;;;3.30;2.47;;;3.30;99.90;;;;;;5096543;28;20214;-80
2023/04/12 02:37:40;;;;;;;6.73;2.70;;;3.30;99.90;;;;;;5086977;28;20195;-79
2023/04/12 02:40:09;;;;;;;6.13;2.80;;;3.20;99.90;;;;;;5104418;28;20208;-79
2023/04/12 02:42:36;;;;;;;7.73;2.87;;;3.30;99.90;;;;;;5103518;28;20265;-78
2023/04/12 02:45:03;;;;;;;7.03;2.80;;;3.40;99.90;;;;;;5103615;28;20218;-79
2023/04/12 02:47:30;;;;;;;4.33;2.70;;;3.70;99.90;;;;;;5102477;28;20666;-79
2023/04/12 02:49:57;;;;;;;3.73;2.30;;;3.30;99.90;;;;;;5100147;28;20199;-78
2023/04/12 02:52:27;;;;;;;2.80;1.90;;;3.20;99.90;;;;;;5083764;28;20206;-79
2023/04/12 02:54:54;;;;;;;4.87;1.90;;;3.00;99.90;;;;;;5082284;28;20226;-78
2023/04/12 02:57:22;;;;;;;5.10;3.00;;;3.00;99.90;;;;;;5083378;28;20202;-80
2023/04/12 02:59:51;;;;;;;4.50;2.23;;;2.90;99.90;;;;;;5083497;28;20556;-79
2023/04/12 03:02:18;;;;;;;3.93;2.40;;;2.90;99.90;;;;;;5082067;28;20225;-79
2023/04/12 03:04:49;;;;;;;2.50;2.30;;;2.90;99.90;;;;;;5082009;28;20643;-79
2023/04/12 03:07:17;;;;;;;4.53;2.47;;;2.90;99.90;;;;;;5081737;28;20907;-80
2023/04/12 03:09:45;;;;;;;4.13;3.23;;;2.90;99.90;;;;;;5082842;28;20207;-80
2023/04/12 03:12:12;;;;;;;5.13;2.90;;;3.10;99.90;;;;;;5083156;28;20202;-80
2023/04/12 03:14:39;;;;;;;8.90;4.13;;;3.20;99.90;;;;;;5083532;28;20690;-79
2023/04/12 03:17:06;;;;;;;5.63;3.07;;;3.40;99.90;;;;;;5101739;28;20739;-79
2023/04/12 03:19:34;;;;;;;6.13;2.80;;;3.60;99.90;;;;;;5104338;28;20225;-78
2023/04/12 03:22:01;;;;;;;6.03;2.80;;;3.90;99.90;;;;;;5084202;28;20198;-85
2023/04/12 03:24:33;;;;;;;4.77;2.60;;;4.00;99.90;;;;;;5083033;28;20230;-79
2023/04/12 03:27:02;;;;;;;8.53;3.20;;;4.20;99.90;;;;;;5097608;28;20221;-81
2023/04/12 03:29:29;;;;;;;8.10;4.33;;;4.30;99.90;;;;;;5092203;28;20204;-80
2023/04/12 03:31:58;;;;;;;4.20;2.70;;;4.40;99.90;;;;;;5083380;28;20229;-80
2023/04/12 03:34:26;;;;;;;12.60;6.27;;;4.50;99.90;;;;;;5093950;28;20222;-79
2023/04/12 03:36:53;;;;;;;45.20;41.37;;;4.60;99.90;;;;;;5103396;28;20194;-78
2023/04/12 03:39:20;;;;;;;5.07;3.93;;;4.50;99.90;;;;;;5103930;28;20213;-77
2023/04/12 03:41:47;;;;;;;5.00;2.70;;;4.70;99.90;;;;;;5104741;28;20206;-80
2023/04/12 03:44:15;;;;;;;8.43;2.63;;;4.90;99.90;;;;;;5104862;28;20288;-78
2023/04/12 03:46:42;;;;;;;4.13;2.10;;;5.10;99.90;;;;;;5104769;28;20213;-79
2023/04/12 03:49:09;;;;;;;3.90;2.20;;;5.20;99.90;;;;;;5104859;28;20221;-78
2023/04/12 03:51:41;;;;;;;5.97;2.40;;;5.40;99.90;;;;;;5105376;28;20212;-78
2023/04/12 03:54:08;;;;;;;5.10;1.93;;;5.40;99.90;;;;;;5105512;28;20283;-79
2023/04/12 03:56:35;;;;;;;3.83;2.03;;;5.60;99.90;;;;;;5104783;28;20665;-78
2023/04/12 03:59:02;;;;;;;4.03;2.17;;;5.60;99.90;;;;;;5095976;28;20198;-79
2023/04/12 04:01:30;;;;;;;3.83;2.00;;;5.50;99.90;;;;;;5096784;28;20205;-78
2023/04/12 04:03:57;;;;;;;4.60;2.03;;;5.60;99.90;;;;;;5097066;28;20217;-78
2023/04/12 04:06:24;;;;;;;6.83;2.07;;;5.70;99.90;;;;;;5098101;28;20537;-79
2023/04/12 04:08:51;;;;;;;3.47;2.30;;;5.60;99.90;;;;;;5104009;28;20202;-78
2023/04/12 04:11:18;;;;;;;3.47;2.20;;;5.80;99.90;;;;;;5102084;28;20211;-80
2023/04/12 04:13:45;;;;;;;8.07;2.30;;;5.80;99.90;;;;;;5091970;28;20304;-78
2023/04/12 04:16:12;;;;;;;4.60;2.17;;;5.60;99.90;;;;;;5104690;28;20280;-78
2023/04/12 04:18:40;;;;;;;5.57;2.43;;;5.60;99.90;;;;;;5104228;28;20205;-77
2023/04/12 04:21:08;;;;;;;7.87;3.50;;;5.60;99.90;;;;;;5105351;28;20205;-78
2023/04/12 04:23:37;;;;;;;4.60;2.20;;;5.60;99.90;;;;;;5106068;28;20197;-80
2023/04/12 04:26:05;;;;;;;5.13;2.43;;;5.60;99.90;;;;;;5102215;28;20282;-78
2023/04/12 04:28:33;;;;;;;6.70;2.20;;;5.70;99.90;;;;;;5085346;28;20218;-80
2023/04/12 04:31:04;;;;;;;5.47;3.60;;;5.70;99.90;;;;;;5086548;28;20676;-78
2023/04/12 04:33:31;;;;;;;5.20;2.23;;;5.70;99.90;;;;;;5084649;28;20212;-79
2023/04/12 04:35:59;;;;;;;4.40;2.13;;;5.70;99.90;;;;;;5091192;28;20273;-79
2023/04/12 04:38:27;;;;;;;3.67;1.93;;;5.70;99.90;;;;;;5103060;28;20201;-78
2023/04/12 04:40:54;;;;;;;3.80;2.17;;;5.80;99.90;;;;;;5105695;28;20185;-79
2023/04/12 04:43:21;;;;;;;8.40;2.30;;;6.40;99.90;;;;;;5090806;28;20201;-79
2023/04/12 04:45:53;;;;;;;4.77;2.13;;;6.50;99.90;;;;;;5093677;28;20258;-80
2023/04/12 04:48:20;;;;;;;7.90;2.23;;;6.30;99.90;;;;;;5095980;28;20225;-79
2023/04/12 04:50:47;;;;;;;5.77;2.40;;;6.20;99.90;;;;;;5094626;28;20242;-79
2023/04/12 04:53:18;;;;;;;3.30;1.90;;;6.30;99.90;;;;;;5084743;28;20286;-78
2023/04/12 04:55:46;;;;;;;5.57;1.93;;;6.50;99.90;;;;;;5089161;28;20201;-81
2023/04/12 04:58:13;;;;;;;3.93;1.80;;;6.60;99.90;;;;;;5104597;28;20194;-78
2023/04/12 05:00:43;;;;;;;5.20;1.90;;;6.90;99.90;;;;;;5104280;28;20201;-80
2023/04/12 05:03:10;;;;;;;5.80;2.20;;;6.70;99.90;;;;;;5101885;28;20209;-80
2023/04/12 05:05:38;;;;;;;5.27;2.10;;;6.80;99.90;;;;;;5102582;28;20658;-79
2023/04/12 05:08:05;;;;;;;2.90;1.90;;;6.80;99.90;;;;;;5104680;28;20253;-80
2023/04/12 05:10:34;;;;;;;3.07;1.70;;;6.90;99.90;;;;;;5105214;28;20571;-80
2023/04/12 05:13:00;;;;;;;6.63;2.10;;;7.00;99.90;;;;;;5104463;28;20205;-80
2023/04/12 05:15:27;;;;;;;3.57;1.90;;;7.00;99.90;;;;;;5105144;28;20221;-80
2023/04/12 05:17:54;;;;;;;4.90;1.70;;;7.00;99.90;;;;;;5095562;28;20292;-79
2023/04/12 05:20:21;;;;;;;3.80;1.80;;;7.10;99.90;;;;;;5083860;28;20214;-80
2023/04/12 05:22:48;;;;;;;2.77;1.60;;;7.10;99.90;;;;;;5092579;28;20212;-78
2023/04/12 05:25:15;;;;;;;6.33;1.90;;;7.20;99.90;;;;;;5104943;28;20217;-78
2023/04/12 05:27:44;;;;;;;3.73;1.63;;;7.30;99.90;;;;;;5104304;28;20304;-80
2023/04/12 05:30:11;;;;;;;3.37;1.93;;;7.50;99.90;;;;;;5105145;28;20709;-80
2023/04/12 05:32:38;;;;;;;3.07;1.90;;;7.60;99.90;;;;;;5098260;28;20210;-78
2023/04/12 05:35:05;;;;;;;4.17;1.90;;;7.70;99.90;;;;;;5088804;28;20346;-79
2023/04/12 05:37:32;;;;;;;3.00;1.70;;;7.80;99.90;;;;;;5088231;28;20259;-80
2023/04/12 05:39:59;;;;;;;4.40;1.90;;;7.80;99.90;;;;;;5088187;28;20266;-79
2023/04/12 05:42:27;;;;;;;3.10;1.60;;;7.80;99.90;;;;;;5088902;28;20210;-79
2023/04/12 05:44:55;;;;;;;4.57;1.60;;;7.90;99.90;;;;;;5088099;28;20249;-79
2023/04/12 05:47:22;;;;;;;3.83;2.00;;;8.00;99.90;;;;;;5087341;28;20232;-79
2023/04/12 05:49:49;;;;;;;1.97;1.50;;;7.90;99.90;;;;;;5086745;28;20289;-78
2023/04/12 05:52:16;;;;;;;5.03;1.93;;;7.90;99.90;;;;;;5088712;28;20214;-80
2023/04/12 05:54:43;;;;;;;1.43;1.33;;;7.90;99.90;;;;;;5088370;28;20237;-79
2023/04/12 05:57:11;;;;;;;3.50;1.80;;;7.70;99.90;;;;;;5087293;28;20717;-78
2023/04/12 05:59:38;;;;;;;2.70;1.70;;;7.70;99.90;;;;;;5087397;28;20270;-78
2023/04/12 06:02:06;;;;;;;5.57;1.60;;;7.60;99.90;;;;;;5086465;28;20213;-79
2023/04/12 06:04:33;;;;;;;5.80;1.97;;;7.60;99.90;;;;;;5088345;28;20236;-78
2023/04/12 06:07:00;;;;;;;5.23;1.80;;;7.60;99.90;;;;;;5102251;28;20557;-78
2023/04/12 06:09:27;;;;;;;4.23;1.80;;;7.60;99.90;;;;;;5107428;28;20212;-79
2023/04/12 06:11:56;;;;;;;3.73;1.70;;;7.60;99.90;;;;;;5092030;28;20244;-77
2023/04/12 06:14:22;;;;;;;4.13;2.50;;;8.20;99.90;;;;;;5085944;28;20652;-80
2023/04/12 06:16:49;;;;;;;5.23;1.83;;;10.00;99.90;;;;;;5088596;28;20274;-79
2023/04/12 06:19:17;;;;;;;3.83;1.70;;;11.00;99.90;;;;;;5105167;28;20208;-78
2023/04/12 06:21:44;;;;;;;6.17;2.40;;;11.30;99.90;;;;;;5104058;28;20201;-78
2023/04/12 06:24:11;;;;;;;5.20;2.13;;;11.00;99.90;;;;;;5084427;28;20312;-78
2023/04/12 06:26:38;;;;;;;3.97;1.90;;;11.40;99.90;;;;;;5084565;28;20210;-79
2023/04/12 06:29:05;;;;;;;6.80;2.10;;;10.80;99.90;;;;;;5084581;28;20222;-78
2023/04/12 06:31:32;;;;;;;3.50;1.83;;;10.50;99.90;;;;;;5085223;28;20206;-81
2023/04/12 06:33:59;;;;;;;4.73;1.80;;;10.60;99.90;;;;;;5083790;28;20604;-80
2023/04/12 06:36:28;;;;;;;3.57;2.10;;;11.00;99.90;;;;;;5083933;28;20212;-79
2023/04/12 06:38:54;;;;;;;6.17;1.60;;;10.80;99.90;;;;;;5101686;28;20227;-81
2023/04/12 06:41:21;;;;;;;3.57;2.13;;;10.90;99.90;;;;;;5104335;28;20197;-80
2023/04/12 06:43:48;;;;;;;3.97;2.10;;;11.40;99.90;;;;;;5103934;28;20236;-80
2023/04/12 06:46:17;;;;;;;2.73;1.57;;;11.70;99.90;;;;;;5103716;28;20289;-78
2023/04/12 06:48:44;;;;;;;5.50;2.10;;;11.00;99.90;;;;;;5104168;28;20225;-78
2023/04/12 06:51:11;;;;;;;3.27;1.70;;;10.50;99.90;;;;;;5104597;28;20738;-78
2023/04/12 06:53:39;;;;;;;4.27;1.83;;;10.40;99.90;;;;;;5090312;28;20226;-79
2023/04/12 06:56:07;;;;;;;5.07;2.33;;;10.30;99.90;;;;;;5102847;28;20681;-78
2023/04/12 06:58:34;;;;;;;4.00;1.87;;;10.10;99.90;;;;;;5092345;28;20669;-78
2023/04/12 07:01:05;;;;;;;4.53;1.90;;;10.10;99.90;;;;;;5103604;28;20223;-79
2023/04/12 07:03:34;;;;;;;4.17;1.87;;;10.00;99.90;;;;;;5103633;28;20201;-78
2023/04/12 07:06:01;;;;;;;5.57;2.00;;;9.80;99.90;;;;;;5083382;28;20205;-78
2023/04/12 07:08:28;;;;;;;3.27;1.70;;;9.90;99.90;;;;;;5082802;28;20265;-78
2023/04/12 07:10:56;;;;;;;5.20;1.73;;;10.00;99.90;;;;;;5083939;28;20210;-80
2023/04/12 07:13:23;;;;;;;2.67;2.00;;;9.90;99.90;;;;;;5100287;28;20237;-79
2023/04/12 07:15:51;;;;;;;4.77;1.83;;;9.90;99.90;;;;;;5101750;28;20225;-78
2023/04/12 07:18:18;;;;;;;5.93;2.10;;;9.90;99.90;;;;;;5086397;28;20206;-80
2023/04/12 07:20:46;;;;;;;7.13;3.00;;;9.90;99.90;;;;;;5082727;28;20292;-79
2023/04/12 07:23:14;;;;;;;4.27;1.60;;;9.80;99.90;;;;;;5082280;28;20202;-80
2023/04/12 07:25:41;;;;;;;5.27;1.73;;;9.90;99.90;;;;;;5083160;28;20229;-78
2023/04/12 07:28:09;;;;;;;3.27;1.57;;;10.20;99.90;;;;;;5081753;28;20275;-79
2023/04/12 07:30:36;;;;;;;2.77;1.80;;;10.50;99.90;;;;;;5083153;28;20198;-80
2023/04/12 07:33:04;;;;;;;5.00;2.23;;;11.30;99.90;;;;;;5101640;28;20274;-80
2023/04/12 07:35:31;;;;;;;3.00;1.97;;;12.30;99.90;;;;;;5105272;28;20226;-79
2023/04/12 07:37:58;;;;;;;5.83;1.70;;;12.10;99.90;;;;;;5104603;28;20638;-79
2023/04/12 07:40:25;;;;;;;4.93;1.77;;;12.40;99.90;;;;;;5104098;28;20220;-80
2023/04/12 07:42:52;;;;;;;4.47;1.80;;;11.90;99.90;;;;;;5104912;28;20570;-78
2023/04/12 07:45:20;;;;;;;6.10;1.83;;;12.20;99.90;;;;;;5105272;28;20236;-80
2023/04/12 07:47:47;;;;;;;5.07;1.57;;;12.10;99.90;;;;;;5102120;28;20228;-78
2023/04/12 07:50:14;;;;;;;1.97;1.40;;;12.80;99.90;;;;;;5102447;28;20198;-79
2023/04/12 07:52:41;;;;;;;4.70;2.13;;;12.60;1.00;;;;;;5104665;28;20213;-78
2023/04/12 07:55:08;;;;;;;5.00;2.07;;;12.50;1.00;;;;;;5104706;28;20304;-80
2023/04/12 07:57:35;;;;;;;4.47;1.70;;;12.40;1.00;;;;;;5093353;28;20210;-79
2023/04/12 08:00:04;;;;;;;5.20;1.67;;;12.10;1.00;;;;;;5088525;28;20655;-79
2023/04/12 08:02:32;;;;;;;3.30;1.80;;;12.10;1.00;;;;;;5102188;28;20209;-81
2023/04/12 08:04:59;;;;;;;3.97;2.00;;;11.80;1.00;;;;;;5091431;28;20218;-79
2023/04/12 08:07:26;;;;;;;6.50;3.10;;;11.60;1.00;;;;;;5089439;28;20206;-80
2023/04/12 08:09:53;;;;;;;4.70;1.80;;;11.60;1.00;;;;;;5081543;28;20206;-80
2023/04/12 08:12:20;;;;;;;3.43;1.50;;;11.40;1.00;;;;;;5100371;28;20204;-80
2023/04/12 08:14:47;;;;;;;5.63;1.87;;;11.40;1.00;;;;;;5101729;28;20218;-79
2023/04/12 08:17:15;;;;;;;5.30;2.57;;;11.20;1.00;;;;;;5088202;28;20205;-79
2023/04/12 08:19:43;;;;;;;7.47;1.90;;;11.10;1.00;;;;;;5081654;28;20292;-79
2023/04/12 08:22:10;;;;;;;6.67;2.53;;;11.00;1.00;;;;;;5081995;28;20246;-79
2023/04/12 08:24:37;;;;;;;5.10;2.00;;;11.00;1.00;;;;;;5081125;28;20686;-79
2023/04/12 08:27:04;;;;;;;5.17;2.07;;;11.00;1.00;;;;;;5081280;28;20206;-78
2023/04/12 08:29:30;;;;;;;4.90;1.97;;;10.80;1.00;;;;;;5080007;28;20232;-81
2023/04/12 08:31:59;;;;;;;3.43;1.70;;;10.90;1.00;;;;;;5079805;28;20206;-80
2023/04/12 08:34:26;;;;;;;7.27;1.90;;;11.00;1.00;;;;;;5080741;28;20226;-80
2023/04/12 08:36:58;;;;;;;4.40;1.73;;;10.90;1.00;;;;;;5081914;28;20213;-80
2023/04/12 08:39:24;;;;;;;3.93;1.90;;;10.80;1.00;;;;;;5079052;28;20236;-78
2023/04/12 08:41:54;;;;;;;5.53;2.00;;;10.80;1.00;;;;;;5079147;28;20716;-79
2023/04/12 08:44:35;;;;;;;4.33;2.37;;;10.80;1.00;;;;;;5078209;28;20600;-78
2023/04/12 08:47:03;;;;;;;3.73;1.80;;;11.00;1.00;;;;;;5078991;28;20293;-78
2023/04/12 08:49:31;;;;;;;5.33;2.10;;;10.70;1.00;;;;;;5078128;28;20230;-79
2023/04/12 08:52:01;;;;;;;5.20;1.90;;;10.70;1.00;;;;;;5080535;28;20259;-80
2023/04/12 08:54:27;;;;;;;2.70;1.80;;;10.60;99.90;;;;;;5082533;28;20234;-79
2023/04/12 08:56:58;;;;;;;7.00;2.37;;;10.40;99.90;;;;;;5083039;28;20225;-80
2023/04/12 08:59:27;;;;;;;4.53;2.23;;;10.20;99.90;;;;;;5083184;28;20697;-77
2023/04/12 09:01:54;;;;;;;4.83;2.20;;;10.20;99.90;;;;;;5082764;28;20202;-79
2023/04/12 09:04:21;;;;;;;5.47;1.97;;;10.00;99.90;;;;;;5082046;28;20237;-78
2023/04/12 09:06:48;;;;;;;3.57;2.13;;;10.00;99.90;;;;;;5082383;28;20210;-80
2023/04/12 09:09:16;;;;;;;5.03;2.07;;;9.90;99.90;;;;;;5085063;28;20319;-80
2023/04/12 09:11:43;;;;;;;4.90;2.40;;;9.90;99.90;;;;;;5086323;28;20328;-80
2023/04/12 09:14:23;;;;;;;2.80;1.90;;;9.80;99.90;;;;;;5085766;28;20244;-80
2023/04/12 09:16:50;;;;;;;5.50;2.17;;;9.80;99.90;;;;;;5085444;28;20202;-78
2023/04/12 09:19:31;;;;;;;5.00;1.97;;;9.70;99.90;;;;;;5084855;28;20607;-80
2023/04/12 09:21:58;;;;;;;4.03;2.10;;;9.70;99.90;;;;;;5085018;28;20202;-80
2023/04/12 09:24:26;;;;;;;4.13;1.90;;;9.70;99.90;;;;;;5085185;28;20222;-80
2023/04/12 09:27:03;;;;;;;2.07;1.87;;;9.70;99.90;;;;;;5084769;28;20230;-79
2023/04/12 09:29:31;;;;;;;7.77;2.27;;;9.70;99.90;;;;;;5084760;28;20241;-80
2023/04/12 09:32:02;;;;;;;2.93;2.10;;;9.70;99.90;;;;;;5084068;28;20216;-81
2023/04/12 09:34:29;;;;;;;3.50;2.03;;;9.70;99.90;;;;;;5084183;28;20230;-80
2023/04/12 09:36:56;;;;;;;2.50;2.00;;;9.70;99.90;;;;;;5084737;28;20206;-80
2023/04/12 09:39:34;;;;;;;3.33;1.97;;;9.70;99.90;;;;;;5084894;28;20288;-78
2023/04/12 09:42:05;;;;;;;4.70;2.00;;;9.50;99.90;;;;;;5084702;28;20690;-78
2023/04/12 09:44:33;;;;;;;3.97;2.10;;;9.60;99.90;;;;;;5084814;28;20643;-79
2023/04/12 09:47:00;;;;;;;3.23;2.07;;;9.40;99.90;;;;;;5083595;28;20623;-77
2023/04/12 09:49:38;;;;;;;5.40;2.30;;;9.40;99.90;;;;;;5084310;28;20225;-78
2023/04/12 09:52:06;;;;;;;3.77;2.20;;;9.40;99.90;;;;;;5083442;28;20206;-78
2023/04/12 09:54:38;;;;;;;5.40;2.40;;;9.40;99.90;;;;;;5083124;28;20253;-79
2023/04/12 09:57:07;;;;;;;4.23;2.20;;;9.40;99.90;;;;;;5085865;28;20206;-79
2023/04/12 09:59:38;;;;;;;3.83;2.10;;;9.50;99.90;;;;;;5106641;28;20566;-80
2023/04/12 10:02:11;;;;;;;5.93;2.30;;;9.20;99.90;;;;;;5099450;28;20198;-78
2023/04/12 10:04:40;;;;;;;6.53;2.63;;;9.20;99.90;;;;;;5092094;28;20709;-78
2023/04/12 10:07:07;;;;;;;5.30;2.30;;;9.10;99.90;;;;;;5105318;28;20237;-78
2023/04/12 10:09:38;;;;;;;6.03;2.10;;;9.10;99.90;;;;;;5102152;28;20297;-78
2023/04/12 10:12:07;;;;;;;4.03;2.13;;;9.20;99.90;;;;;;5093653;28;20202;-78
2023/04/12 10:14:34;;;;;;;6.17;2.50;;;9.30;99.90;;;;;;5081692;28;20268;-78
2023/04/12 10:17:03;;;;;;;3.10;2.30;;;9.30;99.90;;;;;;5083058;28;20216;-78
2023/04/12 10:19:32;;;;;;;4.70;2.47;;;9.30;99.90;;;;;;5083532;28;20505;-79
2023/04/12 10:22:00;;;;;;;3.17;1.87;;;9.30;99.90;;;;;;5101206;28;20219;-79
2023/04/12 10:24:28;;;;;;;6.97;2.30;;;9.30;99.90;;;;;;5105048;28;20376;-79
2023/04/12 10:27:01;;;;;;;3.00;2.10;;;9.40;99.90;;;;;;5089447;28;20239;-80
2023/04/12 10:29:29;;;;;;;3.30;2.00;;;9.40;99.90;;;;;;5089726;28;20229;-79
2023/04/12 10:31:57;;;;;;;3.23;2.10;;;9.50;99.90;;;;;;5099042;28;20214;-78
2023/04/12 10:34:27;;;;;;;5.03;2.40;;;9.60;99.90;;;;;;5103388;28;20230;-78
2023/04/12 10:36:55;;;;;;;5.43;2.23;;;9.60;99.90;;;;;;5090878;28;20217;-79
2023/04/12 10:39:37;;;;;;;3.20;2.20;;;9.60;99.90;;;;;;5104350;28;20269;-79
2023/04/12 10:42:21;;;;;;;6.37;2.13;;;9.60;99.90;;;;;;5096448;28;20201;-80
2023/04/12 10:44:49;;;;;;;7.13;2.80;;;9.70;99.90;;;;;;5083598;28;20717;-80
2023/04/12 10:47:16;;;;;;;3.13;2.00;;;10.10;99.90;;;;;;5082231;28;20202;-79
2023/04/12 10:50:23;;;;;;;2.80;2.10;;;10.00;99.90;;;;;;5084572;28;20222;-80
2023/04/12 10:53:20;;;;;;;6.50;2.07;;;10.00;99.90;;;;;;5103969;28;20205;-79
2023/04/12 10:55:47;;;;;;;4.40;1.60;;;10.00;99.90;;;;;;5103710;28;20760;-80
2023/04/12 10:58:54;;;;;;;3.67;2.07;;;10.00;99.90;;;;;;5102946;28;20193;-79
2023/04/12 11:01:21;;;;;;;4.00;2.00;;;10.10;99.90;;;;;;5094854;28;20198;-79
2023/04/12 11:04:12;;;;;;;2.53;1.80;;;10.10;99.90;;;;;;5103642;28;20285;-79
2023/04/12 11:07:00;;;;;;;2.60;1.70;;;10.10;99.90;;;;;;5091344;28;20214;-79
2023/04/12 11:09:29;;;;;;;4.90;2.10;;;10.10;99.90;;;;;;5084083;28;20226;-79
2023/04/12 11:12:12;;;;;;;2.07;1.70;;;10.20;99.90;;;;;;5082577;28;20568;-78
2023/04/12 11:14:43;;;;;;;3.40;1.50;;;10.10;99.90;;;;;;5082813;28;20246;-79
2023/04/12 11:17:26;;;;;;;2.13;1.53;;;10.10;99.90;;;;;;5083327;28;20290;-80
2023/04/12 11:19:58;;;;;;;3.47;1.67;;;10.20;99.90;;;;;;5083166;28;20281;-80
2023/04/12 11:22:28;;;;;;;3.73;1.67;;;10.10;99.90;;;;;;5095021;28;20650;-80
2023/04/12 11:24:56;;;;;;;3.97;1.60;;;10.00;99.90;;;;;;5105168;28;20224;-79
2023/04/12 11:27:25;;;;;;;1.90;1.80;;;10.10;99.90;;;;;;5104668;28;20297;-79
2023/04/12 11:29:54;;;;;;;3.37;1.60;;;10.20;99.90;;;;;;5092427;28;20225;-79
2023/04/12 11:32:22;;;;;;;1.97;1.17;;;10.10;99.90;;;;;;5081417;28;20210;-79
2023/04/12 11:34:50;;;;;;;2.30;1.60;;;10.20;99.90;;;;;;5081050;28;20230;-79
2023/04/12 11:37:19;;;;;;;2.00;1.43;;;10.20;99.90;;;;;;5081215;28;20519;-81
2023/04/12 11:39:49;;;;;;;3.43;1.57;;;10.10;99.90;;;;;;5082051;28;20202;-80
2023/04/12 11:42:18;;;;;;;2.53;1.37;;;10.10;99.90;;;;;;5083302;28;20202;-80
2023/04/12 11:44:46;;;;;;;3.60;1.67;;;10.10;99.90;;;;;;5083903;28;20222;-78
2023/04/12 11:47:15;;;;;;;3.40;2.43;;;10.10;99.90;;;;;;5083954;28;20202;-78
2023/04/12 11:49:46;;;;;;;1.80;1.40;;;10.20;99.90;;;;;;5093777;28;20576;-78
2023/04/12 11:52:16;;;;;;;2.07;1.50;;;10.20;99.90;;;;;;5085369;28;20208;-78
2023/04/12 11:54:45;;;;;;;2.17;1.40;;;10.30;99.90;;;;;;5084519;28;20634;-80
2023/04/12 11:57:17;;;;;;;2.17;1.50;;;10.40;99.90;;;;;;5084113;28;20665;-80
2023/04/12 11:59:48;;;;;;;1.97;1.60;;;10.40;99.90;;;;;;5084988;28;20255;-79
2023/04/12 12:02:16;;;;;;;4.00;1.50;;;10.30;99.90;;;;;;5083924;28;20213;-80
2023/04/12 12:04:47;;;;;;;4.00;1.80;;;10.40;99.90;;;;;;5084193;28;20729;-80
2023/04/12 12:07:16;;;;;;;1.73;1.37;;;10.40;99.90;;;;;;5083712;28;20201;-79
2023/04/12 12:09:43;;;;;;;4.20;1.67;;;10.20;99.90;;;;;;5083673;28;20244;-80
2023/04/12 12:12:13;;;;;;;2.50;1.57;;;10.30;99.90;;;;;;5084150;28;20202;-77
2023/04/12 12:14:40;;;;;;;1.97;1.80;;;10.40;99.90;;;;;;5083491;28;20690;-80
2023/04/12 12:17:13;;;;;;;2.60;1.47;;;10.40;99.90;;;;;;5082932;28;20213;-79
2023/04/12 12:19:42;;;;;;;2.37;1.40;;;10.50;99.90;;;;;;5082084;28;20218;-79
2023/04/12 12:22:13;;;;;;;2.93;1.50;;;10.50;99.90;;;;;;5083762;28;20213;-78
2023/04/12 12:24:45;;;;;;;2.53;1.73;;;10.60;99.90;;;;;;5084240;28;20228;-79
2023/04/12 12:27:17;;;;;;;2.20;1.30;;;10.70;99.90;;;;;;5083059;28;20190;-79
2023/04/12 12:29:44;;;;;;;2.47;1.83;;;10.70;99.90;;;;;;5083506;28;20202;-79
2023/04/12 12:32:12;;;;;;;2.67;1.40;;;10.80;99.90;;;;;;5083129;28;20190;-79
2023/04/12 12:34:40;;;;;;;2.83;1.67;;;10.80;99.90;;;;;;5083287;28;20286;-79
2023/04/12 12:37:13;;;;;;;2.23;1.37;;;11.00;99.90;;;;;;5082620;28;20213;-79
2023/04/12 12:39:59;;;;;;;3.17;1.93;;;11.10;99.90;;;;;;5084184;28;20203;-80
2023/04/12 12:42:28;;;;;;;1.67;1.57;;;11.10;99.90;;;;;;5082192;28;20225;-85
2023/04/12 12:44:55;;;;;;;1.80;1.57;;;11.00;99.90;;;;;;5080887;28;20265;-81
2023/04/12 12:47:22;;;;;;;3.23;1.50;;;10.90;99.90;;;;;;5081097;28;20202;-79
2023/04/12 12:49:49;;;;;;;1.57;1.47;;;10.90;99.90;;;;;;5076875;28;20283;-82
2023/04/12 12:52:16;;;;;;;2.43;1.73;;;10.90;99.90;;;;;;5076499;28;20218;-79
2023/04/12 12:54:43;;;;;;;2.07;1.50;;;10.90;99.90;;;;;;5077192;28;20246;-83
2023/04/12 12:57:10;;;;;;;2.07;1.60;;;10.70;99.90;;;;;;5076416;28;20221;-79
2023/04/12 12:59:39;;;;;;;1.70;1.60;;;10.80;99.90;;;;;;5076240;28;20198;-82
2023/04/12 13:02:06;;;;;;;2.03;1.27;;;10.60;99.90;;;;;;5075998;28;20202;-83